Avon Heights, Pennsylvania
Current Conditions -  °F | °C
As of 10:58 PM on Friday 28 Nov 2014 (Local Time) from KMUI Reporting Station
Clear Clear  
Wind Chill: -5°   Ceiling: Unl
Heat Index: -2°   Visibility: 10mi
Dew Point: -11°   Wind: 5mph
Humidity: 53%   Direction: NA
Pressure: 30.25"   Gusts: NA
Location:  40.2957°N, 76.4189°W
Report Text: KMUI 290358Z AUTO VRB04KT 10SM CLR M02/M11 A3025 RMK AO2 SLP252 T10221107 $
Loading
Personal Weather Stations






























Interactive Weather Map New forecast layout! Learn more

10-Day Weather Forecast

Advertisements
Track Severe Weather on mobile